TimeCST,TemperatureF,Dew PointF,Humidity,Sea Level PressureIn,VisibilityMPH,Wind Direction,Wind SpeedMPH,Gust SpeedMPH,PrecipitationIn,Events,Conditions,WindDirDegrees,DateUTC
12:51 AM,64.0,62.1,93,30.05,7.0,South,10.4,-,N/A,,Scattered Clouds,170,2012-12-01 06:51:00
1:09 AM,64.4,62.6,94,30.07,8.0,South,11.5,-,N/A,,Mostly Cloudy,170,2012-12-01 07:09:00
1:51 AM,64.9,62.1,90,30.06,10.0,South,11.5,-,N/A,,Overcast,170,2012-12-01 07:51:00
2:51 AM,66.9,63.0,87,30.06,10.0,South,10.4,-,N/A,,Overcast,190,2012-12-01 08:51:00
3:51 AM,66.0,63.0,90,30.05,9.0,SSE,11.5,-,N/A,,Overcast,160,2012-12-01 09:51:00
4:03 AM,66.2,62.6,88,30.06,9.0,SSE,9.2,-,N/A,,Mostly Cloudy,160,2012-12-01 10:03:00
4:51 AM,66.0,62.1,87,30.05,9.0,SSE,8.1,-,N/A,,Mostly Cloudy,160,2012-12-01 10:51:00
5:51 AM,66.0,63.0,90,30.05,8.0,SSE,8.1,-,N/A,,Overcast,160,2012-12-01 11:51:00
6:37 AM,66.2,62.6,88,30.07,7.0,SSE,8.1,-,N/A,,Mostly Cloudy,160,2012-12-01 12:37:00
6:51 AM,66.0,63.0,90,30.05,6.0,SSE,6.9,-,N/A,,Overcast,160,2012-12-01 12:51:00
7:51 AM,66.0,64.0,93,30.06,5.0,South,9.2,-,N/A,,Overcast,170,2012-12-01 13:51:00
8:51 AM,70.0,64.9,84,30.08,7.0,South,11.5,-,N/A,,Overcast,180,2012-12-01 14:51:00
9:15 AM,71.6,64.4,78,30.10,9.0,South,12.7,-,N/A,,Overcast,180,2012-12-01 15:15:00
9:51 AM,72.0,64.0,76,30.09,10.0,South,12.7,-,N/A,,Overcast,180,2012-12-01 15:51:00
10:51 AM,75.0,63.0,66,30.07,10.0,SSW,15.0,23.0,N/A,,Overcast,200,2012-12-01 16:51:00
11:51 AM,80.1,61.0,52,30.05,10.0,SSW,23.0,29.9,N/A,,Overcast,200,2012-12-01 17:51:00
12:51 PM,80.1,60.1,50,30.01,10.0,SSW,15.0,25.3,N/A,,Mostly Cloudy,200,2012-12-01 18:51:00
1:51 PM,82.9,60.1,46,29.97,10.0,SSW,19.6,26.5,N/A,,Scattered Clouds,200,2012-12-01 19:51:00
2:51 PM,82.9,59.0,44,29.96,10.0,South,16.1,27.6,N/A,,Partly Cloudy,190,2012-12-01 20:51:00
3:51 PM,81.0,59.0,47,29.96,10.0,South,18.4,27.6,N/A,,Partly Cloudy,190,2012-12-01 21:51:00
4:51 PM,79.0,57.9,48,29.97,10.0,South,20.7,26.5,N/A,,Clear,190,2012-12-01 22:51:00
5:51 PM,75.0,57.9,55,29.97,10.0,South,10.4,-,N/A,,Clear,190,2012-12-01 23:51:00
6:51 PM,70.0,57.9,65,29.98,10.0,South,9.2,-,N/A,,Clear,190,2012-12-02 00:51:00
7:51 PM,71.1,57.9,63,29.99,10.0,SSW,9.2,-,N/A,,Clear,200,2012-12-02 01:51:00
8:51 PM,70.0,59.0,68,29.99,10.0,South,9.2,-,N/A,,Clear,190,2012-12-02 02:51:00
9:51 PM,69.1,59.0,70,30.01,10.0,South,11.5,-,N/A,,Clear,170,2012-12-02 03:51:00
10:51 PM,68.0,62.1,81,30.03,10.0,South,12.7,-,N/A,,Clear,180,2012-12-02 04:51:00
11:47 PM,69.8,62.6,78,30.06,10.0,South,13.8,-,N/A,,Mostly Cloudy,180,2012-12-02 05:47:00
11:51 PM,69.1,63.0,81,30.04,10.0,South,13.8,-,N/A,,Mostly Cloudy,180,2012-12-02 05:51:00